createdAt,value
2023-04-28T00:01:16.094Z,2.73
2023-04-28T00:03:42.985Z,2.87
2023-04-28T00:06:11.273Z,2.70
2023-04-28T00:08:37.840Z,2.90
2023-04-28T00:11:04.345Z,2.80
2023-04-28T00:13:30.829Z,2.50
2023-04-28T00:15:57.315Z,3.00
2023-04-28T00:18:23.802Z,2.47
2023-04-28T00:20:50.423Z,2.57
2023-04-28T00:23:16.907Z,3.20
2023-04-28T00:25:43.312Z,2.70
2023-04-28T00:28:09.801Z,3.00
2023-04-28T00:30:36.231Z,2.93
2023-04-28T00:33:02.832Z,2.77
2023-04-28T00:35:29.361Z,2.73
2023-04-28T00:37:55.878Z,2.70
2023-04-28T00:40:22.381Z,2.27
2023-04-28T00:42:50.130Z,2.37
2023-04-28T00:45:17.347Z,2.70
2023-04-28T00:47:44.152Z,2.50
2023-04-28T00:50:10.772Z,2.23
2023-04-28T00:52:39.344Z,2.33
2023-04-28T00:55:07.783Z,2.67
2023-04-28T00:57:34.382Z,2.57
2023-04-28T01:00:01.000Z,2.53
2023-04-28T01:02:30.030Z,2.63
2023-04-28T01:04:58.015Z,2.20
2023-04-28T01:07:25.345Z,2.37
2023-04-28T01:09:52.221Z,2.60
2023-04-28T01:12:23.731Z,2.50
2023-04-28T01:14:52.965Z,2.70
2023-04-28T01:17:19.783Z,2.50
2023-04-28T01:19:46.923Z,2.23
2023-04-28T01:22:16.598Z,2.60
2023-04-28T01:24:44.183Z,2.57
2023-04-28T01:27:13.005Z,2.10
2023-04-28T01:29:41.783Z,2.80
2023-04-28T01:32:08.242Z,2.30
2023-04-28T01:34:35.066Z,2.53
2023-04-28T01:37:01.718Z,2.13
2023-04-28T01:39:28.772Z,2.50
2023-04-28T01:41:55.978Z,2.40
2023-04-28T01:44:22.431Z,2.20
2023-04-28T01:46:48.896Z,2.47
2023-04-28T01:49:15.515Z,2.50
2023-04-28T01:51:42.787Z,2.37
2023-04-28T01:54:09.906Z,2.20
2023-04-28T01:56:36.641Z,2.60
2023-04-28T01:59:03.774Z,2.30
2023-04-28T02:01:30.730Z,2.20
2023-04-28T02:03:57.558Z,2.40
2023-04-28T02:06:24.211Z,2.63
2023-04-28T02:08:50.772Z,2.40
2023-04-28T02:11:17.261Z,2.50
2023-04-28T02:13:43.833Z,2.27
2023-04-28T02:16:10.415Z,2.20
2023-04-28T02:18:37.036Z,1.97
2023-04-28T02:21:11.630Z,2.40
2023-04-28T02:23:39.187Z,1.63
2023-04-28T02:26:06.513Z,1.97
2023-04-28T02:28:33.116Z,1.97
2023-04-28T02:31:10.894Z,2.30
2023-04-28T02:33:38.138Z,2.13
2023-04-28T02:36:06.034Z,2.03
2023-04-28T02:38:32.736Z,2.03
2023-04-28T02:41:07.386Z,2.47
2023-04-28T02:43:33.953Z,2.10
2023-04-28T02:46:02.181Z,2.07
2023-04-28T02:48:28.846Z,2.53
2023-04-28T02:50:55.425Z,2.43
2023-04-28T02:53:22.821Z,2.23
2023-04-28T02:55:49.883Z,1.80
2023-04-28T02:58:18.000Z,2.00
2023-04-28T03:00:45.025Z,2.03
2023-04-28T03:03:12.211Z,2.10
2023-04-28T03:05:38.921Z,2.20
2023-04-28T03:08:06.181Z,2.10
2023-04-28T03:10:32.773Z,2.00
2023-04-28T03:13:00.353Z,2.10
2023-04-28T03:15:27.009Z,1.93
2023-04-28T03:17:53.670Z,1.90
2023-04-28T03:20:20.396Z,1.80
2023-04-28T03:22:46.882Z,2.00
2023-04-28T03:25:13.330Z,2.17
2023-04-28T03:27:47.502Z,2.03
2023-04-28T03:30:14.245Z,1.87
2023-04-28T03:32:40.846Z,2.37
2023-04-28T03:35:08.327Z,2.10
2023-04-28T03:37:34.872Z,1.90
2023-04-28T03:40:01.473Z,1.90
2023-04-28T03:42:31.758Z,2.00
2023-04-28T03:45:09.222Z,2.10
2023-04-28T03:47:36.208Z,1.77
2023-04-28T03:50:03.256Z,2.17
2023-04-28T03:52:31.000Z,1.93
2023-04-28T03:54:57.432Z,2.30
2023-04-28T03:57:23.942Z,1.60
2023-04-28T03:59:51.225Z,2.03
2023-04-28T04:02:17.922Z,1.90
2023-04-28T04:04:45.362Z,1.93
2023-04-28T04:07:12.001Z,2.00
2023-04-28T04:09:38.475Z,1.80
2023-04-28T04:12:06.390Z,1.90
2023-04-28T04:14:33.292Z,2.27
2023-04-28T04:16:59.941Z,1.80
2023-04-28T04:19:26.673Z,1.90
2023-04-28T04:21:54.502Z,1.87
2023-04-28T04:24:21.002Z,2.00
2023-04-28T04:26:48.119Z,1.73
2023-04-28T04:29:37.151Z,2.03
2023-04-28T04:32:08.764Z,1.83
2023-04-28T04:34:35.369Z,1.90
2023-04-28T04:37:02.322Z,2.07
2023-04-28T04:39:29.201Z,2.13
2023-04-28T04:41:55.729Z,2.17
2023-04-28T04:44:40.938Z,2.03
2023-04-28T04:47:12.090Z,2.00
2023-04-28T04:49:38.945Z,1.97
2023-04-28T04:52:06.830Z,2.07
2023-04-28T04:54:33.392Z,1.93
2023-04-28T04:56:59.903Z,1.80
2023-04-28T04:59:46.316Z,1.80
2023-04-28T05:02:17.414Z,2.10
2023-04-28T05:04:44.306Z,1.80
2023-04-28T05:07:12.685Z,1.83
2023-04-28T05:09:40.272Z,1.70
2023-04-28T05:12:07.062Z,1.87
2023-04-28T05:14:33.885Z,1.83
2023-04-28T05:17:00.668Z,1.80
2023-04-28T05:19:33.229Z,1.77
2023-04-28T05:22:01.020Z,1.80
2023-04-28T05:24:27.761Z,1.70
2023-04-28T05:26:54.403Z,1.70
2023-04-28T05:29:21.865Z,1.50
2023-04-28T05:31:48.658Z,2.03
2023-04-28T05:34:15.596Z,1.93
2023-04-28T05:36:44.514Z,1.80
2023-04-28T05:39:12.510Z,1.90
2023-04-28T05:41:40.679Z,2.00
2023-04-28T05:44:07.482Z,1.70
2023-04-28T05:46:34.126Z,1.87
2023-04-28T05:49:01.017Z,1.90
2023-04-28T05:51:33.636Z,2.00
2023-04-28T05:54:00.505Z,1.73
2023-04-28T05:56:29.068Z,1.80
2023-04-28T05:58:58.474Z,1.73
2023-04-28T06:01:25.433Z,1.70
2023-04-28T06:03:53.722Z,1.80
2023-04-28T06:06:21.670Z,2.20
2023-04-28T06:08:48.320Z,1.87
2023-04-28T06:11:14.792Z,1.60
2023-04-28T06:13:41.398Z,1.80
2023-04-28T06:16:08.153Z,1.80
2023-04-28T06:18:35.388Z,1.70
2023-04-28T06:21:02.740Z,1.60
2023-04-28T06:23:29.215Z,1.90
2023-04-28T06:25:55.949Z,1.70
2023-04-28T06:28:22.473Z,1.73
2023-04-28T06:30:49.052Z,1.70
2023-04-28T06:33:15.486Z,2.10
2023-04-28T06:35:42.065Z,2.17
2023-04-28T06:38:08.585Z,1.93
2023-04-28T06:40:36.811Z,1.90
2023-04-28T06:43:06.393Z,2.20
2023-04-28T06:45:41.763Z,1.57
2023-04-28T06:48:08.365Z,1.87
2023-04-28T06:50:38.318Z,1.90
2023-04-28T06:53:07.602Z,1.90
2023-04-28T06:55:34.830Z,2.00
2023-04-28T06:58:01.560Z,1.80
2023-04-28T07:00:28.107Z,1.80
2023-04-28T07:02:54.796Z,2.20
2023-04-28T07:05:21.320Z,1.87
2023-04-28T07:07:48.006Z,2.00
2023-04-28T07:10:15.608Z,1.87
2023-04-28T07:12:42.307Z,2.00
2023-04-28T07:15:10.193Z,1.73
2023-04-28T07:17:37.110Z,1.83
2023-04-28T07:20:05.182Z,1.77
2023-04-28T07:22:31.674Z,1.73
2023-04-28T07:24:58.103Z,1.83
2023-04-28T07:27:24.663Z,1.63
2023-04-28T07:29:51.176Z,1.43
2023-04-28T07:32:17.947Z,1.90
2023-04-28T07:34:44.507Z,1.80
2023-04-28T07:37:11.962Z,1.60
2023-04-28T07:39:40.336Z,1.80
2023-04-28T07:42:06.783Z,1.70
2023-04-28T07:44:33.933Z,1.90
2023-04-28T07:47:00.995Z,1.60
2023-04-28T07:49:28.899Z,1.50
2023-04-28T07:51:56.492Z,1.87
2023-04-28T07:54:23.088Z,1.80
2023-04-28T07:56:50.082Z,1.93
2023-04-28T07:59:16.623Z,1.80
2023-04-28T08:01:43.118Z,2.10
2023-04-28T08:04:10.074Z,1.90
2023-04-28T08:06:36.734Z,2.00
2023-04-28T08:09:08.588Z,2.00
2023-04-28T08:11:35.130Z,1.97
2023-04-28T08:14:03.040Z,1.70
2023-04-28T08:16:31.480Z,2.03
2023-04-28T08:18:59.647Z,2.00
2023-04-28T08:21:26.960Z,1.87
2023-04-28T08:23:53.439Z,1.63
2023-04-28T08:26:20.025Z,2.00
2023-04-28T08:28:46.480Z,1.87
2023-04-28T08:31:13.087Z,2.00
2023-04-28T08:33:39.716Z,1.90
2023-04-28T08:36:06.492Z,2.00
2023-04-28T08:38:32.953Z,1.90
2023-04-28T08:40:59.384Z,1.83
2023-04-28T08:43:25.887Z,1.90
2023-04-28T08:45:52.442Z,1.73
2023-04-28T08:48:21.330Z,1.90
2023-04-28T08:50:53.338Z,2.20
2023-04-28T08:53:26.834Z,2.00
2023-04-28T08:55:57.977Z,2.07
2023-04-28T08:58:28.360Z,2.10
2023-04-28T09:00:54.850Z,1.97
2023-04-28T09:03:21.953Z,1.90
2023-04-28T09:05:49.144Z,2.00
2023-04-28T09:08:15.942Z,2.67
2023-04-28T09:10:42.475Z,1.70
2023-04-28T09:13:09.031Z,2.33
2023-04-28T09:15:42.772Z,2.40
2023-04-28T09:18:14.812Z,2.40
2023-04-28T09:20:41.392Z,2.30
2023-04-28T09:23:21.730Z,2.00
2023-04-28T09:26:03.336Z,2.33
2023-04-28T09:28:31.355Z,2.33
2023-04-28T09:30:57.929Z,2.47
2023-04-28T09:33:24.848Z,2.60
2023-04-28T09:35:51.743Z,2.73
2023-04-28T09:38:20.347Z,2.53
2023-04-28T09:40:51.419Z,2.57
2023-04-28T09:43:26.568Z,2.90
2023-04-28T09:45:53.552Z,2.50
2023-04-28T09:48:28.154Z,2.47
2023-04-28T09:50:56.578Z,2.53
2023-04-28T09:53:27.659Z,2.97
2023-04-28T09:55:56.758Z,2.53
2023-04-28T09:58:24.712Z,2.80
2023-04-28T10:00:54.062Z,2.53
2023-04-28T10:03:29.826Z,2.87
2023-04-28T10:05:58.634Z,3.10
2023-04-28T10:08:27.233Z,2.60
2023-04-28T10:10:54.738Z,2.67
2023-04-28T10:13:22.888Z,2.70
2023-04-28T10:15:51.124Z,3.07
2023-04-28T10:18:18.401Z,2.77
2023-04-28T10:20:58.611Z,2.80
2023-04-28T10:24:02.591Z,2.70
2023-04-28T10:27:01.936Z,3.17
2023-04-28T10:29:30.912Z,3.10
2023-04-28T10:32:20.861Z,3.00
2023-04-28T10:34:48.183Z,2.97
2023-04-28T10:37:15.217Z,2.70
2023-04-28T10:40:01.943Z,3.03
2023-04-28T10:42:53.198Z,2.77
2023-04-28T10:45:53.773Z,3.30
2023-04-28T10:48:34.805Z,3.33
2023-04-28T10:51:07.898Z,3.27
2023-04-28T10:53:44.120Z,3.27
2023-04-28T10:56:19.941Z,3.37
2023-04-28T10:58:47.756Z,3.20
2023-04-28T11:01:20.620Z,2.83
2023-04-28T11:03:51.252Z,3.37
2023-04-28T11:06:26.831Z,3.07
2023-04-28T11:08:57.612Z,2.77
2023-04-28T11:11:36.163Z,3.17
2023-04-28T11:14:21.039Z,3.17
2023-04-28T11:16:55.460Z,3.37
2023-04-28T11:19:27.414Z,3.40
2023-04-28T11:21:57.226Z,3.30
2023-04-28T11:24:31.140Z,3.00
2023-04-28T11:26:58.936Z,3.10
2023-04-28T11:29:37.150Z,3.03
2023-04-28T11:32:05.327Z,3.30
2023-04-28T11:34:32.570Z,3.20
2023-04-28T11:36:59.658Z,2.93
2023-04-28T11:39:34.162Z,3.27
2023-04-28T11:42:02.670Z,3.23
2023-04-28T11:44:31.091Z,2.70
2023-04-28T11:47:03.174Z,3.20
2023-04-28T11:49:42.708Z,3.40
2023-04-28T11:52:09.946Z,3.23
2023-04-28T11:54:37.243Z,2.90
2023-04-28T11:57:04.786Z,3.40
2023-04-28T11:59:33.704Z,3.10
2023-04-28T12:02:07.358Z,2.83
2023-04-28T12:04:44.049Z,3.07
2023-04-28T12:07:15.511Z,3.47
2023-04-28T12:09:48.052Z,2.60
2023-04-28T12:12:40.209Z,2.93
2023-04-28T12:15:14.146Z,3.20
2023-04-28T12:17:42.203Z,3.50
2023-04-28T12:20:11.677Z,3.27
2023-04-28T12:22:48.252Z,2.90
2023-04-28T12:25:17.167Z,3.17
2023-04-28T12:28:10.685Z,3.00
2023-04-28T12:30:44.094Z,3.07
2023-04-28T12:33:27.325Z,3.30
2023-04-28T12:35:55.258Z,3.33
2023-04-28T12:38:25.230Z,3.20
2023-04-28T12:40:52.741Z,3.00
2023-04-28T12:43:19.338Z,3.10
2023-04-28T12:45:45.884Z,2.90
2023-04-28T12:48:12.392Z,3.60
2023-04-28T12:50:38.907Z,3.17
2023-04-28T12:53:05.352Z,3.20
2023-04-28T12:55:32.059Z,3.10
2023-04-28T12:57:59.338Z,3.07
2023-04-28T13:00:26.324Z,3.37
2023-04-28T13:02:53.417Z,3.00
2023-04-28T13:05:20.073Z,2.80
2023-04-28T13:07:47.475Z,3.20
2023-04-28T13:10:13.976Z,3.10
2023-04-28T13:12:41.288Z,2.73
2023-04-28T13:15:08.679Z,3.00
2023-04-28T13:17:35.503Z,3.20
2023-04-28T13:20:03.965Z,3.37
2023-04-28T13:22:30.582Z,2.93
2023-04-28T13:24:57.535Z,3.27
2023-04-28T13:27:24.289Z,3.03
2023-04-28T13:29:50.811Z,3.10
2023-04-28T13:32:17.456Z,3.30
2023-04-28T13:34:44.985Z,3.20
2023-04-28T13:37:11.723Z,3.13
2023-04-28T13:39:38.217Z,2.50
2023-04-28T13:42:05.922Z,3.03
2023-04-28T13:44:32.462Z,3.33
2023-04-28T13:46:59.248Z,2.77
2023-04-28T13:49:25.674Z,3.13
2023-04-28T13:51:52.203Z,3.10
2023-04-28T13:54:18.740Z,2.77
2023-04-28T13:56:45.149Z,2.30
2023-04-28T13:59:13.047Z,3.30
2023-04-28T14:01:39.569Z,2.70
2023-04-28T14:04:06.751Z,2.70
2023-04-28T14:06:34.753Z,2.90
2023-04-28T14:09:02.651Z,2.93
2023-04-28T14:11:29.155Z,3.03
2023-04-28T14:13:55.814Z,2.57
2023-04-28T14:16:22.383Z,2.80
2023-04-28T14:18:48.901Z,3.00
2023-04-28T14:21:15.364Z,3.17
2023-04-28T14:23:41.831Z,2.53
2023-04-28T14:26:08.958Z,2.97
2023-04-28T14:28:35.500Z,2.83
2023-04-28T14:31:07.254Z,2.63
2023-04-28T14:33:34.164Z,2.67
2023-04-28T14:36:02.275Z,2.50
2023-04-28T14:38:30.656Z,2.70
2023-04-28T14:40:57.629Z,2.80
2023-04-28T14:43:24.689Z,2.87
2023-04-28T14:45:51.532Z,2.57
2023-04-28T14:48:18.012Z,2.80
2023-04-28T14:50:44.642Z,2.70
2023-04-28T14:53:11.111Z,3.00
2023-04-28T14:55:37.536Z,2.37
2023-04-28T14:58:04.325Z,3.13
2023-04-28T15:00:31.352Z,2.60
2023-04-28T15:02:58.102Z,2.70
2023-04-28T15:05:24.625Z,2.53
2023-04-28T15:07:51.186Z,2.80
2023-04-28T15:10:17.790Z,2.83
2023-04-28T15:12:44.399Z,3.17
2023-04-28T15:15:11.221Z,2.53
2023-04-28T15:17:37.716Z,2.77
2023-04-28T15:20:05.184Z,3.30
2023-04-28T15:22:31.708Z,3.10
2023-04-28T15:24:58.261Z,4.57
2023-04-28T15:27:24.804Z,20.90
2023-04-28T15:29:51.496Z,43.07
2023-04-28T15:32:18.166Z,30.70
2023-04-28T15:34:44.883Z,40.00
2023-04-28T15:37:36.817Z,40.40
2023-04-28T15:40:05.322Z,36.70
2023-04-28T15:42:32.699Z,37.30
2023-04-28T15:44:59.408Z,36.43
2023-04-28T15:47:25.822Z,33.57
2023-04-28T15:49:52.377Z,29.93
2023-04-28T15:52:18.996Z,30.50
2023-04-28T15:54:46.435Z,29.23
2023-04-28T15:57:12.882Z,26.37
2023-04-28T15:59:39.420Z,26.30
2023-04-28T16:02:06.213Z,23.30
2023-04-28T16:04:32.817Z,23.53
2023-04-28T16:07:02.396Z,22.30
2023-04-28T16:09:29.523Z,23.27
2023-04-28T16:11:59.268Z,24.27
2023-04-28T16:14:26.823Z,23.47
2023-04-28T16:16:53.802Z,23.17
2023-04-28T16:19:21.254Z,21.67
2023-04-28T16:21:47.702Z,22.20
2023-04-28T16:24:14.158Z,21.37
2023-04-28T16:26:40.597Z,21.77
2023-04-28T16:29:07.616Z,19.60
2023-04-28T16:31:34.205Z,21.93
2023-04-28T16:34:00.669Z,20.10
2023-04-28T16:36:32.859Z,20.50
2023-04-28T16:38:59.543Z,21.10
2023-04-28T16:41:26.045Z,19.73
2023-04-28T16:43:52.691Z,18.90
2023-04-28T16:46:19.158Z,18.90
2023-04-28T16:48:45.647Z,17.40
2023-04-28T16:51:12.157Z,17.63
2023-04-28T16:53:39.086Z,17.90
2023-04-28T16:56:07.767Z,18.40
2023-04-28T16:58:35.601Z,16.40
2023-04-28T17:01:02.183Z,16.80
2023-04-28T17:03:28.709Z,16.43
2023-04-28T17:05:55.789Z,16.27
2023-04-28T17:08:22.265Z,14.97
2023-04-28T17:10:48.691Z,15.30
2023-04-28T17:13:15.412Z,15.33
2023-04-28T17:15:41.871Z,14.73
2023-04-28T17:18:08.414Z,14.13
2023-04-28T17:20:35.276Z,15.03
2023-04-28T17:23:02.128Z,12.77
2023-04-28T17:25:29.240Z,14.83
2023-04-28T17:27:55.736Z,13.33
2023-04-28T17:30:22.313Z,13.27
2023-04-28T17:32:49.053Z,12.63
2023-04-28T17:35:15.546Z,12.33
2023-04-28T17:37:42.090Z,12.40
2023-04-28T17:40:09.727Z,12.83
2023-04-28T17:42:36.623Z,11.83
2023-04-28T17:45:04.484Z,11.80
2023-04-28T17:47:32.343Z,11.47
2023-04-28T17:49:58.996Z,11.13
2023-04-28T17:52:25.549Z,11.30
2023-04-28T17:54:52.146Z,10.93
2023-04-28T17:57:18.937Z,11.70
2023-04-28T17:59:50.866Z,11.57
2023-04-28T18:02:18.614Z,10.20
2023-04-28T18:04:45.973Z,9.43
2023-04-28T18:07:12.577Z,10.13
2023-04-28T18:09:39.020Z,10.17
2023-04-28T18:12:06.813Z,9.60
2023-04-28T18:14:33.305Z,9.30
2023-04-28T18:16:59.838Z,9.97
2023-04-28T18:19:28.026Z,8.77
2023-04-28T18:21:56.635Z,9.77
2023-04-28T18:24:24.019Z,8.87
2023-04-28T18:26:50.625Z,8.30
2023-04-28T18:29:18.743Z,8.17
2023-04-28T18:31:45.642Z,9.60
2023-04-28T18:34:12.218Z,8.33
2023-04-28T18:36:38.689Z,7.90
2023-04-28T18:39:07.061Z,8.37
2023-04-28T18:41:35.654Z,8.17
2023-04-28T18:44:02.824Z,7.60
2023-04-28T18:46:29.683Z,8.20
2023-04-28T18:48:56.433Z,7.73
2023-04-28T18:51:22.963Z,7.43
2023-04-28T18:53:49.515Z,7.23
2023-04-28T18:56:16.012Z,6.93
2023-04-28T18:58:42.564Z,7.50
2023-04-28T19:01:18.145Z,7.70
2023-04-28T19:03:45.009Z,7.77
2023-04-28T19:06:11.870Z,6.77
2023-04-28T19:08:38.867Z,6.50
2023-04-28T19:11:09.389Z,6.83
2023-04-28T19:13:39.774Z,6.53
2023-04-28T19:16:06.261Z,6.60
2023-04-28T19:18:33.171Z,5.97
2023-04-28T19:21:04.017Z,6.43
2023-04-28T19:23:31.676Z,6.30
2023-04-28T19:25:59.126Z,6.60
2023-04-28T19:28:26.258Z,5.73
2023-04-28T19:30:53.943Z,6.07
2023-04-28T19:33:20.953Z,5.63
2023-04-28T19:35:47.392Z,5.73
2023-04-28T19:38:14.340Z,5.47
2023-04-28T19:40:40.808Z,6.00
2023-04-28T19:43:07.401Z,6.27
2023-04-28T19:45:34.956Z,5.57
2023-04-28T19:48:02.109Z,5.77
2023-04-28T19:50:28.625Z,5.20
2023-04-28T19:52:55.104Z,5.13
2023-04-28T19:55:23.183Z,5.50
2023-04-28T19:57:50.278Z,5.37
2023-04-28T20:00:18.582Z,5.13
2023-04-28T20:02:45.594Z,4.97
2023-04-28T20:05:12.834Z,5.03
2023-04-28T20:07:39.564Z,5.00
2023-04-28T20:10:06.406Z,4.93
2023-04-28T20:12:33.618Z,5.23
2023-04-28T20:15:00.727Z,4.53
2023-04-28T20:17:27.241Z,4.83
2023-04-28T20:19:53.713Z,5.13
2023-04-28T20:22:20.629Z,4.80
2023-04-28T20:24:47.086Z,4.43
2023-04-28T20:27:13.674Z,4.33
2023-04-28T20:29:41.698Z,4.60
2023-04-28T20:32:08.259Z,4.97
2023-04-28T20:34:34.748Z,4.80
2023-04-28T20:37:03.114Z,4.63
2023-04-28T20:39:29.605Z,4.70
2023-04-28T20:41:56.064Z,4.43
2023-04-28T20:44:22.594Z,4.00
2023-04-28T20:46:49.125Z,3.97
2023-04-28T20:49:15.608Z,4.07
2023-04-28T20:51:44.052Z,4.17
2023-04-28T20:54:11.019Z,4.10
2023-04-28T20:56:37.871Z,3.50
2023-04-28T20:59:04.379Z,4.00
2023-04-28T21:01:31.055Z,3.87
2023-04-28T21:03:57.682Z,4.37
2023-04-28T21:06:24.241Z,4.30
2023-04-28T21:08:50.683Z,4.10
2023-04-28T21:11:17.921Z,3.80
2023-04-28T21:13:45.516Z,4.03
2023-04-28T21:16:20.226Z,4.33
2023-04-28T21:18:47.675Z,4.17
2023-04-28T21:21:14.199Z,3.60
2023-04-28T21:23:40.686Z,3.53
2023-04-28T21:26:07.347Z,4.07
2023-04-28T21:28:34.784Z,3.83
2023-04-28T21:31:03.256Z,3.77
2023-04-28T21:33:30.515Z,3.63
2023-04-28T21:35:57.494Z,3.13
2023-04-28T21:38:25.053Z,3.70
2023-04-28T21:40:51.805Z,3.70
2023-04-28T21:43:19.195Z,3.23
2023-04-28T21:45:46.191Z,3.47
2023-04-28T21:48:12.740Z,3.67
2023-04-28T21:50:39.203Z,3.23
2023-04-28T21:53:05.752Z,3.30
2023-04-28T21:55:32.187Z,3.73
2023-04-28T21:58:00.420Z,3.20
2023-04-28T22:00:27.984Z,3.40
2023-04-28T22:02:57.152Z,3.10
2023-04-28T22:05:24.668Z,3.70
2023-04-28T22:07:51.748Z,3.27
2023-04-28T22:10:19.232Z,3.33
2023-04-28T22:12:46.316Z,2.97
2023-04-28T22:15:12.843Z,2.90
2023-04-28T22:17:39.446Z,3.00
2023-04-28T22:20:06.739Z,2.97
2023-04-28T22:22:33.470Z,3.20
2023-04-28T22:25:00.224Z,3.10
2023-04-28T22:27:26.992Z,3.30
2023-04-28T22:29:53.435Z,3.20
2023-04-28T22:32:19.890Z,2.90
2023-04-28T22:34:46.360Z,3.47
2023-04-28T22:37:13.189Z,3.33
2023-04-28T22:39:39.642Z,2.90
2023-04-28T22:42:06.075Z,3.03
2023-04-28T22:44:32.561Z,2.83
2023-04-28T22:46:59.194Z,2.70
2023-04-28T22:49:28.452Z,2.83
2023-04-28T22:51:54.984Z,2.83
2023-04-28T22:54:21.576Z,2.87
2023-04-28T22:56:48.121Z,2.73
2023-04-28T22:59:14.623Z,2.80
2023-04-28T23:01:41.225Z,2.83
2023-04-28T23:04:07.927Z,2.95
2023-04-28T23:06:34.779Z,2.63
2023-04-28T23:09:03.547Z,2.50
2023-04-28T23:11:30.040Z,2.70
2023-04-28T23:13:56.625Z,2.90
2023-04-28T23:16:23.110Z,2.40
2023-04-28T23:18:49.652Z,2.53
2023-04-28T23:21:16.070Z,2.80
2023-04-28T23:23:42.505Z,2.77
2023-04-28T23:26:08.913Z,2.70
2023-04-28T23:28:35.586Z,2.73
2023-04-28T23:31:02.318Z,2.60
2023-04-28T23:33:29.668Z,2.87
2023-04-28T23:35:56.138Z,2.67
2023-04-28T23:38:22.568Z,2.80
2023-04-28T23:40:49.053Z,2.07
2023-04-28T23:43:15.546Z,2.23
2023-04-28T23:45:42.511Z,2.80
2023-04-28T23:48:09.016Z,2.47
2023-04-28T23:50:35.475Z,2.50
2023-04-28T23:53:01.943Z,2.30
2023-04-28T23:55:28.456Z,2.30
2023-04-28T23:57:54.931Z,2.57
